Impacts TAF Board
For situational awareness. Not to be used for flight planning purposes.
IDs:

KDFW - Dallas-Ft Worth Intl, TX, US

Issued at 0525 UTC 23 Feb 2019
Updated at 0630 UTC 23 Feb 2019
Potential Impact None Slight Moderate High
Time0613Z 23/07Z 23/08Z 23/09Z 23/10Z 23/11Z 23/12Z 23/13Z 23/14Z 23/15Z 23/16Z 23/17Z 23/18Z 23/19Z>>
Type OBS PRVL
  [TEMP]  
PRVL
  [TEMP]  
PRVL
  [TEMP]  
PRVL PRVL PRVL PRVL PRVL PRVL PRVL PRVL PRVL PRVL
VIS 0.5 2
  [0.5]  
2
  [0.5]  
2
  [0.5]  
2 6 6 6 6 >6 >6 >6 >6 >6
CIG 1 3
  [3]  
3
  [3]  
3
  [3]  
3 10 10 10 10 -- -- -- -- --
Cover OVC OVC
  [OVC]  
OVC
  [OVC]  
OVC
  [OVC]  
OVC OVC OVC OVC OVC SKC SKC SKC SKC SKC
FltCat LIFR LIFR
  [LIFR]  
LIFR
  [LIFR]  
LIFR
  [LIFR]  
LIFR MVFR MVFR MVFR MVFR VFR VFR VFR VFR VFR
WX BR BR
  [FG]  
BR
  [FG]  
BR
  [FG]  
BR BR VCSH BR VCSH BR VCSH BR VCSH -- -- -- -- --
WDir 120 140
[140]
140
[140]
140
[140]
140 200 200 200 200 250 250 250 250 250
WSpd 3 5
  [5]  
5
  [5]  
5
  [5]  
5 11 11 11 11 20 20 20 20 20
WGst -- --
  [--]  
--
  [--]  
--
  [--]  
-- -- -- -- -- 30 30 30 30 30
Raw TAF
KDFW 230525Z 2306/2412 14005KT 2SM BR OVC003
  TEMPO 2306/2310 1/2SM FG
  FM231100 20011KT 6SM BR VCSH OVC010
  FM231500 25020G30KT P6SM SKC
  FM240100 31015G25KT P6SM FEW250
  FM240600 33011KT P6SM FEW250


Raw METAR
KDFW 230613Z 12003KT 1/2SM R17C/2600V4000FT BR OVC001 09/09 A2982 RMK AO2 SFC VIS 3/4 T00940089
KDFW 230553Z 12006KT 1/2SM R17C/P6000FT BR OVC002 09/09 A2982 RMK AO2 SFC VIS 2 1/2 SLP095 T00940089 10094 20089 400940072 58025
KDFW 230457Z 14006KT 1/2SM R17C/P6000FT BR OVC004 09/09 A2985 RMK AO2 SFC VIS 5 T00940089
KDFW 230453Z 14004KT 6SM BR OVC004 09/09 A2986 RMK AO2 SLP108 T00940089
KDFW 230416Z 12005KT 5SM BR OVC006 09/08 A2986 RMK AO2 T00890083
KDFW 230353Z 12005KT 1/2SM R17C/P6000FT BR OVC006 09/08 A2987 RMK AO2 SFC VIS 4 SLP113 T00890083
KDFW 230339Z 10003KT 1/2SM R17C/P6000FT BR OVC005 09/08 A2988 RMK AO2 SFC VIS 4 T00940083

METAR Board
Radar Display
Forecast Discussion
For situational awareness. Not to be used for flight planning purposes.